sensor_id;sensor_type;location;lat;lon;timestamp;pressure;altitude;pressure_sealevel;temperature;humidity
35892;BME280;21993;42.672;23.296;2022-08-11T00:01:23;94854.59;;;22.85;60.96
35892;BME280;21993;42.672;23.296;2022-08-11T00:03:55;94858.47;;;22.83;61.05
35892;BME280;21993;42.672;23.296;2022-08-11T00:06:27;94854.16;;;22.82;61.31
35892;BME280;21993;42.672;23.296;2022-08-11T00:08:54;94855.19;;;22.74;61.39
35892;BME280;21993;42.672;23.296;2022-08-11T00:11:21;94848.81;;;22.75;61.59
35892;BME280;21993;42.672;23.296;2022-08-11T00:13:55;94852.94;;;22.71;61.44
35892;BME280;21993;42.672;23.296;2022-08-11T00:16:23;94858.69;;;22.74;61.14
35892;BME280;21993;42.672;23.296;2022-08-11T00:18:53;94852.72;;;22.66;61.90
35892;BME280;21993;42.672;23.296;2022-08-11T00:21:21;94851.69;;;22.67;61.90
35892;BME280;21993;42.672;23.296;2022-08-11T00:23:53;94859.94;;;22.65;61.69
35892;BME280;21993;42.672;23.296;2022-08-11T00:26:20;94850.47;;;22.56;62.17
35892;BME280;21993;42.672;23.296;2022-08-11T00:28:46;94853.75;;;22.58;61.83
35892;BME280;21993;42.672;23.296;2022-08-11T00:31:30;94853.75;;;22.52;62.17
35892;BME280;21993;42.672;23.296;2022-08-11T00:33:57;94847.78;;;22.50;62.44
35892;BME280;21993;42.672;23.296;2022-08-11T00:36:29;94842.63;;;22.48;62.36
35892;BME280;21993;42.672;23.296;2022-08-11T00:39:04;94847.78;;;22.50;62.26
35892;BME280;21993;42.672;23.296;2022-08-11T00:41:31;94843.88;;;22.45;62.22
35892;BME280;21993;42.672;23.296;2022-08-11T01:03:53;94840.59;;;22.37;63.14
35892;BME280;21993;42.672;23.296;2022-08-11T01:27:12;94830.09;;;22.29;63.19
35892;BME280;21993;42.672;23.296;2022-08-11T01:30:06;94834.81;;;22.20;63.50
35892;BME280;21993;42.672;23.296;2022-08-11T01:35:46;94829.88;;;22.24;63.68
35892;BME280;21993;42.672;23.296;2022-08-11T01:41:20;94819.16;;;22.17;63.68
35892;BME280;21993;42.672;23.296;2022-08-11T01:44:12;94829.44;;;22.13;64.17
35892;BME280;21993;42.672;23.296;2022-08-11T01:53:25;94831.22;;;22.00;64.49
35892;BME280;21993;42.672;23.296;2022-08-11T01:59:08;94826.91;;;21.92;64.40
35892;BME280;21993;42.672;23.296;2022-08-11T02:01:56;94825.66;;;21.88;65.03
35892;BME280;21993;42.672;23.296;2022-08-11T02:04:42;94819.69;;;21.86;64.69
35892;BME280;21993;42.672;23.296;2022-08-11T02:10:22;94832.44;;;21.90;64.68
35892;BME280;21993;42.672;23.296;2022-08-11T02:16:09;94822.56;;;21.91;64.70
35892;BME280;21993;42.672;23.296;2022-08-11T02:18:39;94818.88;;;21.92;64.86
35892;BME280;21993;42.672;23.296;2022-08-11T02:21:31;94823.38;;;21.78;65.23
35892;BME280;21993;42.672;23.296;2022-08-11T02:24:27;94821.34;;;21.87;64.92
35892;BME280;21993;42.672;23.296;2022-08-11T02:27:06;94826.69;;;21.80;64.73
35892;BME280;21993;42.672;23.296;2022-08-11T02:30:05;94817.22;;;21.78;64.91
35892;BME280;21993;42.672;23.296;2022-08-11T02:35:40;94819.25;;;21.76;65.17
35892;BME280;21993;42.672;23.296;2022-08-11T02:38:32;94828.09;;;21.76;64.92
35892;BME280;21993;42.672;23.296;2022-08-11T02:41:30;94828.50;;;21.73;64.88
35892;BME280;21993;42.672;23.296;2022-08-11T02:44:43;94820.25;;;21.68;65.40
35892;BME280;21993;42.672;23.296;2022-08-11T02:59:27;94820.25;;;21.61;65.41
35892;BME280;21993;42.672;23.296;2022-08-11T03:05:30;94824.09;;;21.52;65.58
35892;BME280;21993;42.672;23.296;2022-08-11T03:08:23;94824.09;;;21.52;65.62
35892;BME280;21993;42.672;23.296;2022-08-11T03:11:13;94831.69;;;21.49;66.07
35892;BME280;21993;42.672;23.296;2022-08-11T03:14:20;94829.25;;;21.47;66.17
35892;BME280;21993;42.672;23.296;2022-08-11T03:17:24;94829.66;;;21.44;65.95
35892;BME280;21993;42.672;23.296;2022-08-11T03:21:01;94833.31;;;21.37;66.69
35892;BME280;21993;42.672;23.296;2022-08-11T03:29:11;94823.03;;;21.40;66.21
35892;BME280;21993;42.672;23.296;2022-08-11T03:31:43;94831.63;;;21.35;66.33
35892;BME280;21993;42.672;23.296;2022-08-11T03:34:38;94824.66;;;21.34;66.38
35892;BME280;21993;42.672;23.296;2022-08-11T03:37:25;94821.59;;;21.38;66.24
35892;BME280;21993;42.672;23.296;2022-08-11T03:43:43;94835.53;;;21.33;66.79
35892;BME280;21993;42.672;23.296;2022-08-11T03:49:11;94830.31;;;21.25;66.83
35892;BME280;21993;42.672;23.296;2022-08-11T03:52:10;94831.44;;;21.30;66.31
35892;BME280;21993;42.672;23.296;2022-08-11T04:11:23;94845.19;;;21.27;66.78
35892;BME280;21993;42.672;23.296;2022-08-11T04:20:22;94839.84;;;21.27;66.32
35892;BME280;21993;42.672;23.296;2022-08-11T04:23:05;94834.91;;;21.31;67.11
35892;BME280;21993;42.672;23.296;2022-08-11T04:25:35;94839.84;;;21.27;66.99
35892;BME280;21993;42.672;23.296;2022-08-11T04:34:03;94848.94;;;21.40;66.19
35892;BME280;21993;42.672;23.296;2022-08-11T04:57:08;94842.41;;;21.55;65.44
35892;BME280;21993;42.672;23.296;2022-08-11T05:00:06;94849.63;;;21.55;66.16
35892;BME280;21993;42.672;23.296;2022-08-11T05:03:08;94850.03;;;21.58;66.11
35892;BME280;21993;42.672;23.296;2022-08-11T05:09:08;94848.84;;;21.74;65.56
35892;BME280;21993;42.672;23.296;2022-08-11T05:11:52;94845.59;;;21.79;64.85
35892;BME280;21993;42.672;23.296;2022-08-11T05:14:38;94849.50;;;21.83;65.10
35892;BME280;21993;42.672;23.296;2022-08-11T05:17:36;94844.97;;;21.83;65.21
35892;BME280;21993;42.672;23.296;2022-08-11T05:20:23;94850.31;;;21.83;65.58
35892;BME280;21993;42.672;23.296;2022-08-11T05:23:08;94850.09;;;21.85;65.37
35892;BME280;21993;42.672;23.296;2022-08-11T05:25:58;94852.84;;;22.05;64.82
35892;BME280;21993;42.672;23.296;2022-08-11T05:28:52;94845.44;;;22.07;64.01
35892;BME280;21993;42.672;23.296;2022-08-11T05:31:38;94843.00;;;22.18;64.46
35892;BME280;21993;42.672;23.296;2022-08-11T05:34:33;94838.31;;;22.21;64.34
35892;BME280;21993;42.672;23.296;2022-08-11T05:37:42;94840.34;;;22.25;64.23
35892;BME280;21993;42.672;23.296;2022-08-11T05:40:27;94840.16;;;22.33;63.93
35892;BME280;21993;42.672;23.296;2022-08-11T05:43:12;94848.81;;;22.48;63.51
35892;BME280;21993;42.672;23.296;2022-08-11T05:46:02;94844.09;;;22.37;63.68
35892;BME280;21993;42.672;23.296;2022-08-11T05:48:48;94838.31;;;22.47;63.87
35892;BME280;21993;42.672;23.296;2022-08-11T05:51:34;94839.53;;;22.51;63.57
35892;BME280;21993;42.672;23.296;2022-08-11T05:54:18;94846.16;;;22.62;63.39
35892;BME280;21993;42.672;23.296;2022-08-11T05:57:03;94842.44;;;22.63;63.07
35892;BME280;21993;42.672;23.296;2022-08-11T05:59:30;94841.19;;;22.65;62.95
35892;BME280;21993;42.672;23.296;2022-08-11T06:02:01;94841.41;;;22.70;63.15
35892;BME280;21993;42.672;23.296;2022-08-11T06:04:28;94842.41;;;22.83;63.08
35892;BME280;21993;42.672;23.296;2022-08-11T06:07:02;94841.78;;;22.94;62.47
35892;BME280;21993;42.672;23.296;2022-08-11T06:09:34;94838.13;;;22.88;62.96
35892;BME280;21993;42.672;23.296;2022-08-11T06:12:10;94844.28;;;22.89;63.10
35892;BME280;21993;42.672;23.296;2022-08-11T06:14:42;94840.16;;;22.86;62.61
35892;BME280;21993;42.672;23.296;2022-08-11T06:17:11;94837.31;;;22.88;63.09
35892;BME280;21993;42.672;23.296;2022-08-11T06:19:42;94837.69;;;22.98;62.48
35892;BME280;21993;42.672;23.296;2022-08-11T06:22:11;94845.88;;;23.16;61.97
35892;BME280;21993;42.672;23.296;2022-08-11T06:24:40;94838.00;;;23.28;61.36
35892;BME280;21993;42.672;23.296;2022-08-11T06:27:07;94829.94;;;23.41;60.59
35892;BME280;21993;42.672;23.296;2022-08-11T06:29:35;94829.31;;;23.46;60.64
35892;BME280;21993;42.672;23.296;2022-08-11T06:32:05;94828.88;;;23.49;60.29
35892;BME280;21993;42.672;23.296;2022-08-11T06:40:11;94828.00;;;23.68;59.91
35892;BME280;21993;42.672;23.296;2022-08-11T06:43:16;94829.75;;;23.87;58.94
35892;BME280;21993;42.672;23.296;2022-08-11T06:45:56;94838.16;;;23.98;58.40
35892;BME280;21993;42.672;23.296;2022-08-11T06:48:29;94826.38;;;24.05;58.34
35892;BME280;21993;42.672;23.296;2022-08-11T06:51:01;94822.94;;;24.23;57.58
35892;BME280;21993;42.672;23.296;2022-08-11T06:53:46;94821.91;;;24.24;56.46
35892;BME280;21993;42.672;23.296;2022-08-11T06:56:14;94833.00;;;24.34;56.20
35892;BME280;21993;42.672;23.296;2022-08-11T06:58:59;94830.91;;;24.36;56.17
35892;BME280;21993;42.672;23.296;2022-08-11T07:02:20;94831.59;;;24.57;56.22
35892;BME280;21993;42.672;23.296;2022-08-11T07:04:50;94836.28;;;24.61;56.38
35892;BME280;21993;42.672;23.296;2022-08-11T07:13:13;94837.38;;;24.79;55.63
35892;BME280;21993;42.672;23.296;2022-08-11T07:15:59;94834.06;;;24.83;53.96
35892;BME280;21993;42.672;23.296;2022-08-11T07:18:28;94829.66;;;24.89;54.87
35892;BME280;21993;42.672;23.296;2022-08-11T07:24:31;94833.88;;;25.03;53.37
35892;BME280;21993;42.672;23.296;2022-08-11T07:27:18;94834.59;;;25.17;54.34
35892;BME280;21993;42.672;23.296;2022-08-11T07:30:06;94831.22;;;25.21;54.20
35892;BME280;21993;42.672;23.296;2022-08-11T07:32:43;94832.19;;;25.27;53.27
35892;BME280;21993;42.672;23.296;2022-08-11T07:35:11;94828.38;;;25.35;52.95
35892;BME280;21993;42.672;23.296;2022-08-11T07:37:46;94837.78;;;25.62;52.63
35892;BME280;21993;42.672;23.296;2022-08-11T07:40:20;94838.47;;;25.58;52.29
35892;BME280;21993;42.672;23.296;2022-08-11T07:42:47;94834.97;;;25.57;52.79
35892;BME280;21993;42.672;23.296;2022-08-11T07:45:14;94828.38;;;25.71;52.01
35892;BME280;21993;42.672;23.296;2022-08-11T07:47:59;94826.09;;;25.75;51.90
35892;BME280;21993;42.672;23.296;2022-08-11T07:50:44;94821.13;;;25.90;50.09
35892;BME280;21993;42.672;23.296;2022-08-11T07:53:29;94816.69;;;25.96;50.01
35892;BME280;21993;42.672;23.296;2022-08-11T07:56:00;94825.50;;;26.03;49.70
35892;BME280;21993;42.672;23.296;2022-08-11T07:58:27;94818.38;;;26.08;49.00
35892;BME280;21993;42.672;23.296;2022-08-11T08:01:21;94820.28;;;26.20;49.58
35892;BME280;21993;42.672;23.296;2022-08-11T08:04:07;94822.97;;;26.20;49.93
35892;BME280;21993;42.672;23.296;2022-08-11T08:06:52;94817.91;;;26.12;50.44
35892;BME280;21993;42.672;23.296;2022-08-11T08:09:37;94813.91;;;26.32;49.08
35892;BME280;21993;42.672;23.296;2022-08-11T08:12:22;94814.09;;;26.31;49.38
35892;BME280;21993;42.672;23.296;2022-08-11T08:15:09;94818.75;;;26.42;49.17
35892;BME280;21993;42.672;23.296;2022-08-11T08:17:56;94815.22;;;26.53;47.19
35892;BME280;21993;42.672;23.296;2022-08-11T08:20:29;94806.91;;;26.55;47.34
35892;BME280;21993;42.672;23.296;2022-08-11T08:22:57;94810.44;;;26.55;47.15
35892;BME280;21993;42.672;23.296;2022-08-11T08:25:27;94810.56;;;26.60;48.16
35892;BME280;21993;42.672;23.296;2022-08-11T08:27:55;94817.00;;;26.59;49.06
35892;BME280;21993;42.672;23.296;2022-08-11T08:30:25;94796.75;;;26.69;47.95
35892;BME280;21993;42.672;23.296;2022-08-11T08:33:11;94804.94;;;26.74;48.53
35892;BME280;21993;42.672;23.296;2022-08-11T08:35:38;94801.19;;;26.63;47.68
35892;BME280;21993;42.672;23.296;2022-08-11T08:38:06;94793.25;;;26.68;47.24
35892;BME280;21993;42.672;23.296;2022-08-11T08:40:31;94802.84;;;26.76;48.01
35892;BME280;21993;42.672;23.296;2022-08-11T08:43:02;94784.22;;;26.86;47.80
35892;BME280;21993;42.672;23.296;2022-08-11T08:45:32;94801.19;;;26.98;48.20
35892;BME280;21993;42.672;23.296;2022-08-11T08:48:17;94791.38;;;27.15;47.77
35892;BME280;21993;42.672;23.296;2022-08-11T08:50:51;94804.13;;;27.32;46.11
35892;BME280;21993;42.672;23.296;2022-08-11T08:53:39;94791.81;;;27.24;46.32
35892;BME280;21993;42.672;23.296;2022-08-11T08:56:08;94794.88;;;27.28;45.96
35892;BME280;21993;42.672;23.296;2022-08-11T08:58:36;94792.78;;;27.18;46.34
35892;BME280;21993;42.672;23.296;2022-08-11T09:01:03;94789.63;;;27.21;45.97
35892;BME280;21993;42.672;23.296;2022-08-11T09:03:29;94787.63;;;27.28;46.13
35892;BME280;21993;42.672;23.296;2022-08-11T09:05:56;94785.72;;;27.29;46.18
35892;BME280;21993;42.672;23.296;2022-08-11T09:08:23;94785.63;;;27.24;46.60
35892;BME280;21993;42.672;23.296;2022-08-11T09:10:49;94788.19;;;27.42;44.73
35892;BME280;21993;42.672;23.296;2022-08-11T09:13:35;94777.97;;;27.44;45.42
35892;BME280;21993;42.672;23.296;2022-08-11T09:16:04;94781.34;;;27.51;45.26
35892;BME280;21993;42.672;23.296;2022-08-11T09:18:30;94777.94;;;27.56;45.74
35892;BME280;21993;42.672;23.296;2022-08-11T09:20:57;94774.59;;;27.65;45.49
35892;BME280;21993;42.672;23.296;2022-08-11T09:23:23;94773.13;;;27.69;45.15
35892;BME280;21993;42.672;23.296;2022-08-11T09:26:09;94774.22;;;27.85;44.90
35892;BME280;21993;42.672;23.296;2022-08-11T09:28:54;94777.75;;;27.86;44.40
35892;BME280;21993;42.672;23.296;2022-08-11T09:31:20;94778.88;;;27.90;44.18
35892;BME280;21993;42.672;23.296;2022-08-11T09:33:50;94775.75;;;28.10;44.20
35892;BME280;21993;42.672;23.296;2022-08-11T09:36:18;94773.78;;;28.05;43.93
35892;BME280;21993;42.672;23.296;2022-08-11T09:39:04;94771.66;;;28.07;44.44
35892;BME280;21993;42.672;23.296;2022-08-11T09:41:49;94764.16;;;28.09;43.43
35892;BME280;21993;42.672;23.296;2022-08-11T09:44:16;94762.19;;;28.21;42.83
35892;BME280;21993;42.672;23.296;2022-08-11T09:47:01;94768.94;;;28.36;42.47
35892;BME280;21993;42.672;23.296;2022-08-11T09:49:29;94754.28;;;28.31;42.37
35892;BME280;21993;42.672;23.296;2022-08-11T09:51:56;94755.72;;;28.22;42.78
35892;BME280;21993;42.672;23.296;2022-08-11T09:54:23;94747.63;;;28.22;42.63
35892;BME280;21993;42.672;23.296;2022-08-11T09:56:53;94749.84;;;28.25;42.86
35892;BME280;21993;42.672;23.296;2022-08-11T09:59:37;94752.75;;;28.36;42.89
35892;BME280;21993;42.672;23.296;2022-08-11T10:02:05;94748.88;;;28.48;43.89
35892;BME280;21993;42.672;23.296;2022-08-11T10:04:39;94743.41;;;28.60;43.15
35892;BME280;21993;42.672;23.296;2022-08-11T10:07:06;94739.47;;;28.68;41.76
35892;BME280;21993;42.672;23.296;2022-08-11T10:09:41;94727.75;;;28.62;42.16
35892;BME280;21993;42.672;23.296;2022-08-11T10:12:14;94735.97;;;28.67;41.88
35892;BME280;21993;42.672;23.296;2022-08-11T10:14:44;94739.94;;;28.81;41.75
35892;BME280;21993;42.672;23.296;2022-08-11T10:17:34;94737.22;;;28.81;41.46
35892;BME280;21993;42.672;23.296;2022-08-11T10:20:01;94734.69;;;28.92;41.69
35892;BME280;21993;42.672;23.296;2022-08-11T10:22:33;94736.66;;;28.96;41.63
35892;BME280;21993;42.672;23.296;2022-08-11T10:25:19;94734.22;;;28.95;41.25
35892;BME280;21993;42.672;23.296;2022-08-11T10:28:06;94740.50;;;29.00;40.88
35892;BME280;21993;42.672;23.296;2022-08-11T10:30:32;94739.19;;;29.03;41.17
35892;BME280;21993;42.672;23.296;2022-08-11T10:33:17;94738.25;;;29.14;42.28
35892;BME280;21993;42.672;23.296;2022-08-11T10:36:02;94740.66;;;29.32;40.90
35892;BME280;21993;42.672;23.296;2022-08-11T10:38:30;94733.09;;;29.34;41.20
35892;BME280;21993;42.672;23.296;2022-08-11T10:40:56;94729.09;;;29.37;41.18
35892;BME280;21993;42.672;23.296;2022-08-11T10:43:40;94730.47;;;29.39;40.94
35892;BME280;21993;42.672;23.296;2022-08-11T10:46:10;94728.56;;;29.40;40.78
35892;BME280;21993;42.672;23.296;2022-08-11T10:48:55;94728.84;;;29.38;40.52
35892;BME280;21993;42.672;23.296;2022-08-11T10:51:23;94715.25;;;29.55;39.61
35892;BME280;21993;42.672;23.296;2022-08-11T10:54:08;94709.19;;;29.48;39.70
35892;BME280;21993;42.672;23.296;2022-08-11T10:56:53;94713.38;;;29.56;39.44
35892;BME280;21993;42.672;23.296;2022-08-11T10:59:37;94708.16;;;29.49;39.61
35892;BME280;21993;42.672;23.296;2022-08-11T11:02:03;94708.38;;;29.48;38.93
35892;BME280;21993;42.672;23.296;2022-08-11T11:04:51;94709.91;;;29.60;39.83
35892;BME280;21993;42.672;23.296;2022-08-11T11:07:26;94704.19;;;29.57;39.25
35892;BME280;21993;42.672;23.296;2022-08-11T11:10:04;94694.94;;;29.80;38.13
35892;BME280;21993;42.672;23.296;2022-08-11T11:12:43;94695.25;;;29.83;38.22
35892;BME280;21993;42.672;23.296;2022-08-11T11:15:30;94701.44;;;29.79;38.42
35892;BME280;21993;42.672;23.296;2022-08-11T11:18:23;94698.63;;;29.68;39.24
35892;BME280;21993;42.672;23.296;2022-08-11T11:23:27;94701.56;;;29.67;38.76
35892;BME280;21993;42.672;23.296;2022-08-11T11:36:50;94701.06;;;29.97;37.10
35892;BME280;21993;42.672;23.296;2022-08-11T11:39:23;94707.84;;;29.99;37.50
35892;BME280;21993;42.672;23.296;2022-08-11T11:41:52;94691.06;;;29.97;37.55
35892;BME280;21993;42.672;23.296;2022-08-11T11:44:20;94704.78;;;29.91;38.23
35892;BME280;21993;42.672;23.296;2022-08-11T11:46:47;94689.84;;;29.83;36.69
35892;BME280;21993;42.672;23.296;2022-08-11T11:49:16;94685.00;;;29.85;37.98
35892;BME280;21993;42.672;23.296;2022-08-11T11:51:44;94683.88;;;29.81;37.76
35892;BME280;21993;42.672;23.296;2022-08-11T11:54:13;94679.06;;;29.88;38.88
35892;BME280;21993;42.672;23.296;2022-08-11T11:56:40;94681.56;;;29.95;38.81
35892;BME280;21993;42.672;23.296;2022-08-11T11:59:07;94681.22;;;30.13;38.73
35892;BME280;21993;42.672;23.296;2022-08-11T12:01:53;94680.94;;;30.15;39.79
35892;BME280;21993;42.672;23.296;2022-08-11T12:04:19;94686.19;;;30.26;38.94
35892;BME280;21993;42.672;23.296;2022-08-11T12:06:46;94674.84;;;30.30;37.87
35892;BME280;21993;42.672;23.296;2022-08-11T12:09:12;94671.34;;;30.34;38.02
35892;BME280;21993;42.672;23.296;2022-08-11T12:11:46;94671.81;;;30.21;38.31
35892;BME280;21993;42.672;23.296;2022-08-11T12:14:30;94668.81;;;30.22;38.02
35892;BME280;21993;42.672;23.296;2022-08-11T12:16:56;94659.63;;;30.23;37.78
35892;BME280;21993;42.672;23.296;2022-08-11T12:19:24;94662.88;;;30.25;38.49
35892;BME280;21993;42.672;23.296;2022-08-11T12:21:54;94660.16;;;30.20;39.59
35892;BME280;21993;42.672;23.296;2022-08-11T12:24:39;94665.56;;;30.20;40.21
35892;BME280;21993;42.672;23.296;2022-08-11T12:27:25;94673.69;;;30.20;40.01
35892;BME280;21993;42.672;23.296;2022-08-11T12:29:58;94661.81;;;30.26;40.34
35892;BME280;21993;42.672;23.296;2022-08-11T12:32:30;94660.91;;;30.16;39.75
35892;BME280;21993;42.672;23.296;2022-08-11T12:34:56;94675.88;;;30.23;39.41
35892;BME280;21993;42.672;23.296;2022-08-11T12:37:36;94668.81;;;30.22;40.20
35892;BME280;21993;42.672;23.296;2022-08-11T12:40:12;94674.44;;;30.11;40.87
35892;BME280;21993;42.672;23.296;2022-08-11T12:43:01;94675.63;;;29.98;40.85
35892;BME280;21993;42.672;23.296;2022-08-11T12:45:46;94670.53;;;29.75;39.95
35892;BME280;21993;42.672;23.296;2022-08-11T12:48:16;94677.84;;;29.74;40.07
35892;BME280;21993;42.672;23.296;2022-08-11T12:51:03;94681.81;;;29.66;39.42
35892;BME280;21993;42.672;23.296;2022-08-11T12:56:44;94693.34;;;29.13;40.78
35892;BME280;21993;42.672;23.296;2022-08-11T12:59:29;94687.06;;;28.69;41.87
35892;BME280;21993;42.672;23.296;2022-08-11T13:02:19;94683.75;;;28.83;42.41
35892;BME280;21993;42.672;23.296;2022-08-11T13:05:06;94681.84;;;28.62;42.39
35892;BME280;21993;42.672;23.296;2022-08-11T13:07:33;94685.03;;;28.59;42.25
35892;BME280;21993;42.672;23.296;2022-08-11T13:10:02;94677.94;;;28.75;43.02
35892;BME280;21993;42.672;23.296;2022-08-11T13:12:29;94685.03;;;28.59;42.78
35892;BME280;21993;42.672;23.296;2022-08-11T13:15:15;94684.16;;;28.53;43.60
35892;BME280;21993;42.672;23.296;2022-08-11T13:17:43;94679.00;;;28.52;43.31
35892;BME280;21993;42.672;23.296;2022-08-11T13:20:10;94691.81;;;28.62;43.79
35892;BME280;21993;42.672;23.296;2022-08-11T13:22:40;94694.19;;;28.58;42.62
35892;BME280;21993;42.672;23.296;2022-08-11T13:25:10;94686.97;;;28.64;42.71
35892;BME280;21993;42.672;23.296;2022-08-11T13:27:38;94686.00;;;28.70;42.66
35892;BME280;21993;42.672;23.296;2022-08-11T13:30:04;94674.00;;;28.82;41.60
35892;BME280;21993;42.672;23.296;2022-08-11T13:32:48;94686.75;;;28.48;42.39
35892;BME280;21993;42.672;23.296;2022-08-11T13:35:16;94680.94;;;28.56;42.73
35892;BME280;21993;42.672;23.296;2022-08-11T13:37:45;94669.72;;;28.65;42.40
35892;BME280;21993;42.672;23.296;2022-08-11T13:40:13;94675.19;;;28.70;41.50
35892;BME280;21993;42.672;23.296;2022-08-11T13:42:40;94674.13;;;28.71;41.48
35892;BME280;21993;42.672;23.296;2022-08-11T13:45:08;94664.25;;;28.81;40.47
35892;BME280;21993;42.672;23.296;2022-08-11T13:47:34;94671.72;;;28.74;40.20
35892;BME280;21993;42.672;23.296;2022-08-11T13:50:01;94663.00;;;28.67;41.10
35892;BME280;21993;42.672;23.296;2022-08-11T13:52:27;94662.50;;;28.70;41.30
35892;BME280;21993;42.672;23.296;2022-08-11T13:54:53;94656.44;;;28.63;40.85
35892;BME280;21993;42.672;23.296;2022-08-11T13:57:20;94661.84;;;28.63;40.86
35892;BME280;21993;42.672;23.296;2022-08-11T13:59:51;94654.91;;;28.67;41.01
35892;BME280;21993;42.672;23.296;2022-08-11T14:02:22;94660.56;;;28.49;40.28
35892;BME280;21993;42.672;23.296;2022-08-11T14:04:54;94651.78;;;28.58;40.69
35892;BME280;21993;42.672;23.296;2022-08-11T14:07:22;94645.00;;;28.56;40.34
35892;BME280;21993;42.672;23.296;2022-08-11T14:09:57;94645.91;;;28.62;40.35
35892;BME280;21993;42.672;23.296;2022-08-11T14:12:28;94647.13;;;28.54;40.37
35892;BME280;21993;42.672;23.296;2022-08-11T14:15:27;94644.72;;;28.36;39.80
35892;BME280;21993;42.672;23.296;2022-08-11T14:18:06;94644.78;;;28.41;39.87
35892;BME280;21993;42.672;23.296;2022-08-11T14:20:36;94641.50;;;28.39;40.00
35892;BME280;21993;42.672;23.296;2022-08-11T14:23:36;94652.56;;;28.37;40.55
35892;BME280;21993;42.672;23.296;2022-08-11T14:26:04;94650.66;;;28.54;39.23
35892;BME280;21993;42.672;23.296;2022-08-11T14:29:06;94642.25;;;28.51;39.40
35892;BME280;21993;42.672;23.296;2022-08-11T14:31:35;94645.78;;;28.35;39.65
35892;BME280;21993;42.672;23.296;2022-08-11T14:34:04;94641.25;;;28.40;39.77
35892;BME280;21993;42.672;23.296;2022-08-11T14:36:34;94640.44;;;28.40;39.86
35892;BME280;21993;42.672;23.296;2022-08-11T14:39:03;94644.94;;;28.51;40.35
35892;BME280;21993;42.672;23.296;2022-08-11T14:41:30;94631.16;;;28.69;39.32
35892;BME280;21993;42.672;23.296;2022-08-11T14:44:15;94638.06;;;28.60;39.46
35892;BME280;21993;42.672;23.296;2022-08-11T14:47:00;94637.16;;;28.54;40.08
35892;BME280;21993;42.672;23.296;2022-08-11T14:49:35;94637.06;;;28.49;40.53
35892;BME280;21993;42.672;23.296;2022-08-11T14:52:05;94630.41;;;28.35;41.04
35892;BME280;21993;42.672;23.296;2022-08-11T14:54:32;94633.16;;;28.40;40.86
35892;BME280;21993;42.672;23.296;2022-08-11T14:57:17;94630.19;;;28.42;40.83
35892;BME280;21993;42.672;23.296;2022-08-11T14:59:45;94637.06;;;28.49;41.31
35892;BME280;21993;42.672;23.296;2022-08-11T15:02:13;94631.66;;;28.49;41.94
35892;BME280;21993;42.672;23.296;2022-08-11T15:04:59;94634.56;;;28.43;41.14
35892;BME280;21993;42.672;23.296;2022-08-11T15:07:25;94632.09;;;28.41;41.40
35892;BME280;21993;42.672;23.296;2022-08-11T15:10:00;94630.47;;;28.40;41.42
35892;BME280;21993;42.672;23.296;2022-08-11T15:12:27;94634.97;;;28.51;40.67
35892;BME280;21993;42.672;23.296;2022-08-11T15:14:54;94623.25;;;28.46;40.54
35892;BME280;21993;42.672;23.296;2022-08-11T15:17:40;94626.22;;;28.44;40.90
35892;BME280;21993;42.672;23.296;2022-08-11T15:20:09;94619.22;;;28.48;41.74
35892;BME280;21993;42.672;23.296;2022-08-11T15:22:55;94627.69;;;28.18;42.43
35892;BME280;21993;42.672;23.296;2022-08-11T15:25:42;94618.53;;;28.36;42.97
35892;BME280;21993;42.672;23.296;2022-08-11T15:28:10;94630.47;;;28.40;42.78
35892;BME280;21993;42.672;23.296;2022-08-11T15:30:58;94629.06;;;28.38;42.71
35892;BME280;21993;42.672;23.296;2022-08-11T15:33:44;94629.97;;;28.26;42.14
35892;BME280;21993;42.672;23.296;2022-08-11T15:36:31;94616.28;;;28.16;42.42
35892;BME280;21993;42.672;23.296;2022-08-11T15:39:38;94615.50;;;27.99;42.51
35892;BME280;21993;42.672;23.296;2022-08-11T15:42:26;94612.63;;;28.05;42.51
35892;BME280;21993;42.672;23.296;2022-08-11T15:45:13;94621.13;;;28.14;42.44
35892;BME280;21993;42.672;23.296;2022-08-11T15:48:07;94626.06;;;28.00;42.32
35892;BME280;21993;42.672;23.296;2022-08-11T15:50:38;94621.41;;;27.96;42.06
35892;BME280;21993;42.672;23.296;2022-08-11T15:53:11;94619.34;;;28.03;42.30
35892;BME280;21993;42.672;23.296;2022-08-11T15:55:40;94619.84;;;28.00;42.11
35892;BME280;21993;42.672;23.296;2022-08-11T15:58:08;94616.00;;;27.96;41.68
35892;BME280;21993;42.672;23.296;2022-08-11T16:00:54;94634.72;;;28.02;41.68
35892;BME280;21993;42.672;23.296;2022-08-11T16:03:48;94631.47;;;27.84;41.54
35892;BME280;21993;42.672;23.296;2022-08-11T16:06:34;94634.06;;;27.79;41.78
35892;BME280;21993;42.672;23.296;2022-08-11T16:09:03;94628.16;;;27.82;41.34
35892;BME280;21993;42.672;23.296;2022-08-11T16:11:33;94637.31;;;27.81;41.25
35892;BME280;21993;42.672;23.296;2022-08-11T16:14:03;94635.69;;;27.80;40.92
35892;BME280;21993;42.672;23.296;2022-08-11T16:16:49;94629.47;;;27.79;41.28
35892;BME280;21993;42.672;23.296;2022-08-11T16:19:18;94630.81;;;27.76;40.53
35892;BME280;21993;42.672;23.296;2022-08-11T16:21:46;94632.13;;;27.62;40.71
35892;BME280;21993;42.672;23.296;2022-08-11T16:24:16;94634.34;;;27.65;40.52
35892;BME280;21993;42.672;23.296;2022-08-11T16:26:43;94634.72;;;27.57;40.84
35892;BME280;21993;42.672;23.296;2022-08-11T16:29:10;94639.31;;;27.57;40.89
35892;BME280;21993;42.672;23.296;2022-08-11T16:31:37;94638.41;;;27.51;40.70
35892;BME280;21993;42.672;23.296;2022-08-11T16:34:04;94632.00;;;27.40;41.28
35892;BME280;21993;42.672;23.296;2022-08-11T16:36:53;94637.75;;;27.44;41.72
35892;BME280;21993;42.672;23.296;2022-08-11T16:39:37;94641.38;;;27.49;41.61